sensor_id;sensor_type;location;lat;lon;timestamp;pressure;altitude;pressure_sealevel;temperature;humidity
33161;BME280;19522;45.656;11.302;2023-01-30T00:00:59;98949.13;;;0.47;78.42
33161;BME280;19522;45.656;11.302;2023-01-30T00:03:26;98947.78;;;0.28;79.53
33161;BME280;19522;45.656;11.302;2023-01-30T00:05:51;98946.44;;;0.10;80.15
33161;BME280;19522;45.656;11.302;2023-01-30T00:08:18;98948.25;;;-0.04;81.14
33161;BME280;19522;45.656;11.302;2023-01-30T00:10:44;98929.06;;;-0.09;81.74
33161;BME280;19522;45.656;11.302;2023-01-30T00:13:10;98926.00;;;0.22;80.58
33161;BME280;19522;45.656;11.302;2023-01-30T00:15:36;98914.38;;;0.10;80.19
33161;BME280;19522;45.656;11.302;2023-01-30T00:18:02;98930.25;;;0.24;80.39
33161;BME280;19522;45.656;11.302;2023-01-30T00:20:28;98915.13;;;0.12;79.49
33161;BME280;19522;45.656;11.302;2023-01-30T00:22:53;98926.34;;;0.04;80.25
33161;BME280;19522;45.656;11.302;2023-01-30T00:25:19;98919.63;;;-0.02;80.75
33161;BME280;19522;45.656;11.302;2023-01-30T00:27:44;98917.19;;;-0.05;80.98
33161;BME280;19522;45.656;11.302;2023-01-30T00:30:10;98915.81;;;-0.10;81.22
33161;BME280;19522;45.656;11.302;2023-01-30T00:32:36;98919.16;;;-0.20;81.48
33161;BME280;19522;45.656;11.302;2023-01-30T00:35:01;98903.31;;;-0.10;81.41
33161;BME280;19522;45.656;11.302;2023-01-30T00:37:27;98899.19;;;0.10;80.08
33161;BME280;19522;45.656;11.302;2023-01-30T00:39:53;98900.56;;;0.16;79.09
33161;BME280;19522;45.656;11.302;2023-01-30T00:42:18;98878.94;;;-0.05;79.34
33161;BME280;19522;45.656;11.302;2023-01-30T00:45:02;98892.72;;;0.02;79.84
33161;BME280;19522;45.656;11.302;2023-01-30T00:47:50;98897.91;;;0.16;79.36
33161;BME280;19522;45.656;11.302;2023-01-30T00:50:15;98902.44;;;0.03;79.67
33161;BME280;19522;45.656;11.302;2023-01-30T00:52:41;98907.91;;;-0.12;80.54
33161;BME280;19522;45.656;11.302;2023-01-30T00:55:07;98908.78;;;-0.11;80.69
33161;BME280;19522;45.656;11.302;2023-01-30T00:57:32;98878.47;;;-0.36;80.89
33161;BME280;19522;45.656;11.302;2023-01-30T00:59:58;98889.69;;;-0.44;80.96
33161;BME280;19522;45.656;11.302;2023-01-30T01:02:23;98862.59;;;-0.51;81.24
33161;BME280;19522;45.656;11.302;2023-01-30T01:04:49;98864.75;;;-0.19;80.14
33161;BME280;19522;45.656;11.302;2023-01-30T01:07:14;98823.81;;;-0.43;79.70
33161;BME280;19522;45.656;11.302;2023-01-30T01:09:40;98885.41;;;-0.21;79.96
33161;BME280;19522;45.656;11.302;2023-01-30T01:12:06;98894.69;;;-0.26;80.64
33161;BME280;19522;45.656;11.302;2023-01-30T01:14:32;98883.78;;;-0.23;80.71
33161;BME280;19522;45.656;11.302;2023-01-30T01:16:58;98871.22;;;-0.34;79.82
33161;BME280;19522;45.656;11.302;2023-01-30T01:19:24;98886.47;;;-0.49;81.21
33161;BME280;19522;45.656;11.302;2023-01-30T01:21:50;98875.44;;;-0.19;80.83
33161;BME280;19522;45.656;11.302;2023-01-30T01:24:16;98871.44;;;-0.24;81.07
33161;BME280;19522;45.656;11.302;2023-01-30T01:26:41;98871.94;;;-0.19;81.29
33161;BME280;19522;45.656;11.302;2023-01-30T01:29:11;98863.41;;;-0.24;81.55
33161;BME280;19522;45.656;11.302;2023-01-30T01:31:37;98872.91;;;-0.20;81.77
33161;BME280;19522;45.656;11.302;2023-01-30T01:34:03;98839.06;;;-0.33;81.77
33161;BME280;19522;45.656;11.302;2023-01-30T01:36:28;98827.13;;;-0.40;82.00
33161;BME280;19522;45.656;11.302;2023-01-30T01:38:54;98855.72;;;-0.29;82.07
33161;BME280;19522;45.656;11.302;2023-01-30T01:41:19;98846.66;;;-0.52;82.96
33161;BME280;19522;45.656;11.302;2023-01-30T01:44:07;98850.31;;;-0.53;83.33
33161;BME280;19522;45.656;11.302;2023-01-30T01:46:57;98839.31;;;-0.61;83.86
33161;BME280;19522;45.656;11.302;2023-01-30T01:49:26;98840.16;;;-0.48;83.07
33161;BME280;19522;45.656;11.302;2023-01-30T01:51:59;98842.81;;;-0.48;82.75
33161;BME280;19522;45.656;11.302;2023-01-30T01:57:23;98839.56;;;-0.14;80.44
33161;BME280;19522;45.656;11.302;2023-01-30T02:02:35;98829.00;;;-0.16;80.25
33161;BME280;19522;45.656;11.302;2023-01-30T02:05:02;98837.44;;;-0.22;80.78
33161;BME280;19522;45.656;11.302;2023-01-30T02:07:40;98840.03;;;-0.34;81.45
33161;BME280;19522;45.656;11.302;2023-01-30T02:10:21;98819.44;;;-0.44;81.71
33161;BME280;19522;45.656;11.302;2023-01-30T02:12:47;98832.00;;;-0.34;81.66
33161;BME280;19522;45.656;11.302;2023-01-30T02:15:15;98825.66;;;-0.44;81.74
33161;BME280;19522;45.656;11.302;2023-01-30T02:17:41;98822.13;;;-0.57;82.25
33161;BME280;19522;45.656;11.302;2023-01-30T02:23:28;98821.69;;;-0.51;82.80
33161;BME280;19522;45.656;11.302;2023-01-30T02:26:18;98814.44;;;-0.49;82.61
33161;BME280;19522;45.656;11.302;2023-01-30T02:31:41;98812.72;;;-0.50;81.82
33161;BME280;19522;45.656;11.302;2023-01-30T02:34:34;98805.97;;;-0.43;81.46
33161;BME280;19522;45.656;11.302;2023-01-30T02:37:27;98810.69;;;-0.47;80.78
33161;BME280;19522;45.656;11.302;2023-01-30T02:46:04;98809.78;;;-0.21;79.69
33161;BME280;19522;45.656;11.302;2023-01-30T02:48:40;98806.91;;;-0.18;79.42
33161;BME280;19522;45.656;11.302;2023-01-30T02:51:48;98802.84;;;-0.24;79.30
33161;BME280;19522;45.656;11.302;2023-01-30T02:54:07;98801.44;;;-0.17;79.12
33161;BME280;19522;45.656;11.302;2023-01-30T02:56:52;98792.63;;;-0.30;79.07
33161;BME280;19522;45.656;11.302;2023-01-30T02:59:38;98793.50;;;-0.42;79.46
33161;BME280;19522;45.656;11.302;2023-01-30T03:02:48;98787.09;;;-0.40;79.85
33161;BME280;19522;45.656;11.302;2023-01-30T03:10:46;98769.44;;;-0.67;80.56
33161;BME280;19522;45.656;11.302;2023-01-30T03:13:33;98773.72;;;-0.77;81.15
33161;BME280;19522;45.656;11.302;2023-01-30T03:16:21;98772.19;;;-0.55;80.44
33161;BME280;19522;45.656;11.302;2023-01-30T03:18:49;98719.81;;;-0.69;79.76
33161;BME280;19522;45.656;11.302;2023-01-30T03:21:15;98765.28;;;-0.34;80.15
33161;BME280;19522;45.656;11.302;2023-01-30T03:23:43;98753.34;;;-0.41;80.21
33161;BME280;19522;45.656;11.302;2023-01-30T03:26:13;98752.69;;;-0.69;80.73
33161;BME280;19522;45.656;11.302;2023-01-30T03:28:42;98754.28;;;-0.79;82.02
33161;BME280;19522;45.656;11.302;2023-01-30T03:31:09;98758.38;;;-0.86;82.44
33161;BME280;19522;45.656;11.302;2023-01-30T03:33:34;98712.19;;;-1.13;82.76
33161;BME280;19522;45.656;11.302;2023-01-30T03:36:00;98754.53;;;-0.82;82.24
33161;BME280;19522;45.656;11.302;2023-01-30T03:38:26;98752.19;;;-0.87;81.97
33161;BME280;19522;45.656;11.302;2023-01-30T03:40:52;98744.72;;;-0.95;82.47
33161;BME280;19522;45.656;11.302;2023-01-30T03:43:17;98748.75;;;-0.76;81.57
33161;BME280;19522;45.656;11.302;2023-01-30T03:45:43;98742.22;;;-0.59;80.13
33161;BME280;19522;45.656;11.302;2023-01-30T03:48:08;98729.25;;;-0.52;79.80
33161;BME280;19522;45.656;11.302;2023-01-30T03:50:34;98744.56;;;-0.54;79.60
33161;BME280;19522;45.656;11.302;2023-01-30T03:52:59;98737.00;;;-0.73;80.43
33161;BME280;19522;45.656;11.302;2023-01-30T03:55:25;98724.88;;;-0.77;80.65
33161;BME280;19522;45.656;11.302;2023-01-30T03:57:55;98747.66;;;-0.73;80.49
33161;BME280;19522;45.656;11.302;2023-01-30T04:00:21;98737.78;;;-0.84;81.07
33161;BME280;19522;45.656;11.302;2023-01-30T04:02:46;98722.63;;;-0.97;81.69
33161;BME280;19522;45.656;11.302;2023-01-30T04:05:12;98717.38;;;-0.72;81.40
33161;BME280;19522;45.656;11.302;2023-01-30T04:07:37;98727.53;;;-0.90;82.00
33161;BME280;19522;45.656;11.302;2023-01-30T04:10:03;98724.03;;;-0.91;82.08
33161;BME280;19522;45.656;11.302;2023-01-30T04:12:29;98722.53;;;-1.08;82.71
33161;BME280;19522;45.656;11.302;2023-01-30T04:14:55;98720.19;;;-1.00;83.26
33161;BME280;19522;45.656;11.302;2023-01-30T04:17:21;98717.22;;;-1.08;83.29
33161;BME280;19522;45.656;11.302;2023-01-30T04:19:46;98651.13;;;-1.42;83.40
33161;BME280;19522;45.656;11.302;2023-01-30T04:22:12;98715.47;;;-0.96;82.57
33161;BME280;19522;45.656;11.302;2023-01-30T04:24:37;98710.16;;;-0.96;82.23
33161;BME280;19522;45.656;11.302;2023-01-30T04:27:03;98702.38;;;-0.99;81.76
33161;BME280;19522;45.656;11.302;2023-01-30T04:29:28;98708.06;;;-0.67;80.46
33161;BME280;19522;45.656;11.302;2023-01-30T04:31:54;98703.25;;;-0.61;79.91
33161;BME280;19522;45.656;11.302;2023-01-30T04:34:19;98701.19;;;-0.82;80.51
33161;BME280;19522;45.656;11.302;2023-01-30T04:36:45;98672.78;;;-1.20;81.40
33161;BME280;19522;45.656;11.302;2023-01-30T04:39:10;98681.81;;;-1.10;82.00
33161;BME280;19522;45.656;11.302;2023-01-30T04:41:36;98684.13;;;-1.05;82.16
33161;BME280;19522;45.656;11.302;2023-01-30T04:44:01;98682.47;;;-1.06;82.29
33161;BME280;19522;45.656;11.302;2023-01-30T04:46:27;98611.09;;;-1.40;82.34
33161;BME280;19522;45.656;11.302;2023-01-30T04:48:52;98684.56;;;-0.99;81.93
33161;BME280;19522;45.656;11.302;2023-01-30T04:51:18;98670.28;;;-0.98;81.89
33161;BME280;19522;45.656;11.302;2023-01-30T04:53:43;98651.53;;;-1.22;82.20
33161;BME280;19522;45.656;11.302;2023-01-30T04:56:09;98663.78;;;-0.93;81.74
33161;BME280;19522;45.656;11.302;2023-01-30T04:58:34;98652.94;;;-0.79;80.59
33161;BME280;19522;45.656;11.302;2023-01-30T05:03:54;98655.78;;;-0.93;81.02
33161;BME280;19522;45.656;11.302;2023-01-30T05:06:20;98655.97;;;-0.97;81.21
33161;BME280;19522;45.656;11.302;2023-01-30T05:08:54;98658.03;;;-1.00;81.23
33161;BME280;19522;45.656;11.302;2023-01-30T05:11:20;98651.72;;;-0.99;82.00
33161;BME280;19522;45.656;11.302;2023-01-30T05:13:46;98639.88;;;-0.95;81.03
33161;BME280;19522;45.656;11.302;2023-01-30T05:16:13;98646.81;;;-0.92;81.40
33161;BME280;19522;45.656;11.302;2023-01-30T05:18:42;98658.78;;;-0.98;81.54
33161;BME280;19522;45.656;11.302;2023-01-30T05:21:10;98656.84;;;-1.09;81.46
33161;BME280;19522;45.656;11.302;2023-01-30T05:23:37;98649.22;;;-1.27;81.69
33161;BME280;19522;45.656;11.302;2023-01-30T05:26:03;98659.00;;;-1.14;82.33
33161;BME280;19522;45.656;11.302;2023-01-30T05:28:28;98649.47;;;-1.05;81.29
33161;BME280;19522;45.656;11.302;2023-01-30T05:31:05;98654.59;;;-1.02;81.27
33161;BME280;19522;45.656;11.302;2023-01-30T05:33:31;98660.91;;;-1.03;80.98
33161;BME280;19522;45.656;11.302;2023-01-30T05:35:56;98656.44;;;-1.03;81.21
33161;BME280;19522;45.656;11.302;2023-01-30T05:38:23;98658.41;;;-0.81;80.44
33161;BME280;19522;45.656;11.302;2023-01-30T05:41:01;98654.19;;;-0.72;80.23
33161;BME280;19522;45.656;11.302;2023-01-30T05:43:28;98655.53;;;-0.77;80.17
33161;BME280;19522;45.656;11.302;2023-01-30T05:45:55;98668.88;;;-0.90;80.44
33161;BME280;19522;45.656;11.302;2023-01-30T05:48:21;98679.03;;;-0.96;81.32
33161;BME280;19522;45.656;11.302;2023-01-30T05:50:51;98673.69;;;-0.96;81.64
33161;BME280;19522;45.656;11.302;2023-01-30T05:53:18;98654.41;;;-1.25;82.35
33161;BME280;19522;45.656;11.302;2023-01-30T05:55:43;98664.88;;;-1.22;82.50
33161;BME280;19522;45.656;11.302;2023-01-30T05:58:09;98670.94;;;-1.59;83.40
33161;BME280;19522;45.656;11.302;2023-01-30T06:00:35;98670.94;;;-1.59;84.06
33161;BME280;19522;45.656;11.302;2023-01-30T06:03:00;98666.38;;;-1.57;84.34
33161;BME280;19522;45.656;11.302;2023-01-30T06:05:29;98671.28;;;-1.50;84.31
33161;BME280;19522;45.656;11.302;2023-01-30T06:07:54;98668.41;;;-1.47;84.03
33161;BME280;19522;45.656;11.302;2023-01-30T06:10:19;98609.63;;;-1.83;83.95
33161;BME280;19522;45.656;11.302;2023-01-30T06:12:45;98673.09;;;-1.38;83.24
33161;BME280;19522;45.656;11.302;2023-01-30T06:15:10;98665.97;;;-1.37;83.20
33161;BME280;19522;45.656;11.302;2023-01-30T06:17:36;98658.41;;;-1.31;82.99
33161;BME280;19522;45.656;11.302;2023-01-30T06:20:02;98661.56;;;-1.26;82.77
33161;BME280;19522;45.656;11.302;2023-01-30T06:22:28;98663.06;;;-1.21;82.21
33161;BME280;19522;45.656;11.302;2023-01-30T06:24:53;98668.78;;;-1.15;81.56
33161;BME280;19522;45.656;11.302;2023-01-30T06:27:21;98676.25;;;-1.07;81.52
33161;BME280;19522;45.656;11.302;2023-01-30T06:29:47;98670.19;;;-1.09;81.33
33161;BME280;19522;45.656;11.302;2023-01-30T06:32:12;98673.72;;;-1.34;82.30
33161;BME280;19522;45.656;11.302;2023-01-30T06:34:39;98671.13;;;-1.10;81.54
33161;BME280;19522;45.656;11.302;2023-01-30T06:37:04;98679.22;;;-0.99;80.65
33161;BME280;19522;45.656;11.302;2023-01-30T06:39:30;98675.19;;;-0.91;80.67
33161;BME280;19522;45.656;11.302;2023-01-30T06:41:55;98640.47;;;-1.16;80.34
33161;BME280;19522;45.656;11.302;2023-01-30T06:44:20;98672.03;;;-1.22;81.63
33161;BME280;19522;45.656;11.302;2023-01-30T06:46:46;98673.94;;;-1.24;82.01
33161;BME280;19522;45.656;11.302;2023-01-30T06:49:11;98689.19;;;-1.27;82.52
33161;BME280;19522;45.656;11.302;2023-01-30T06:51:37;98700.47;;;-1.23;82.61
33161;BME280;19522;45.656;11.302;2023-01-30T06:54:02;98693.31;;;-0.97;81.64
33161;BME280;19522;45.656;11.302;2023-01-30T06:56:28;98677.91;;;-0.80;80.62
33161;BME280;19522;45.656;11.302;2023-01-30T06:58:53;98671.53;;;-0.77;80.13
33161;BME280;19522;45.656;11.302;2023-01-30T07:01:19;98673.78;;;-0.84;80.47
33161;BME280;19522;45.656;11.302;2023-01-30T07:03:45;98667.13;;;-1.16;81.23
33161;BME280;19522;45.656;11.302;2023-01-30T07:06:11;98631.94;;;-1.34;81.91
33161;BME280;19522;45.656;11.302;2023-01-30T07:08:37;98666.56;;;-1.08;82.30
33161;BME280;19522;45.656;11.302;2023-01-30T07:11:03;98650.03;;;-1.00;81.91
33161;BME280;19522;45.656;11.302;2023-01-30T07:13:29;98646.81;;;-0.92;81.70
33161;BME280;19522;45.656;11.302;2023-01-30T07:15:54;98654.81;;;-0.92;81.72
33161;BME280;19522;45.656;11.302;2023-01-30T07:18:20;98654.78;;;-0.80;81.74
33161;BME280;19522;45.656;11.302;2023-01-30T07:20:47;98651.66;;;-0.73;81.48
33161;BME280;19522;45.656;11.302;2023-01-30T07:23:12;98656.66;;;-0.69;81.54
33161;BME280;19522;45.656;11.302;2023-01-30T07:25:38;98658.44;;;-0.56;81.06
33161;BME280;19522;45.656;11.302;2023-01-30T07:28:03;98664.25;;;-0.51;80.82
33161;BME280;19522;45.656;11.302;2023-01-30T07:30:31;98661.16;;;-0.45;80.15
33161;BME280;19522;45.656;11.302;2023-01-30T07:32:58;98648.53;;;-0.43;79.96
33161;BME280;19522;45.656;11.302;2023-01-30T07:35:27;98649.06;;;-0.38;79.81
33161;BME280;19522;45.656;11.302;2023-01-30T07:37:52;98653.84;;;-0.30;79.15
33161;BME280;19522;45.656;11.302;2023-01-30T07:40:19;98647.63;;;-0.30;79.27
33161;BME280;19522;45.656;11.302;2023-01-30T07:43:02;98638.19;;;-0.23;78.81
33161;BME280;19522;45.656;11.302;2023-01-30T07:45:36;98647.00;;;-0.10;78.39
33161;BME280;19522;45.656;11.302;2023-01-30T07:48:05;98664.72;;;-0.09;78.25
33161;BME280;19522;45.656;11.302;2023-01-30T07:50:31;98663.41;;;-0.03;78.26
33161;BME280;19522;45.656;11.302;2023-01-30T07:52:57;98650.19;;;0.07;77.24
33161;BME280;19522;45.656;11.302;2023-01-30T07:55:22;98665.28;;;0.19;77.48
33161;BME280;19522;45.656;11.302;2023-01-30T07:57:48;98665.03;;;0.11;78.13
33161;BME280;19522;45.656;11.302;2023-01-30T08:00:14;98660.06;;;-0.18;78.67
33161;BME280;19522;45.656;11.302;2023-01-30T08:02:40;98663.22;;;-0.24;79.76
33161;BME280;19522;45.656;11.302;2023-01-30T08:05:06;98645.69;;;-0.28;80.39
33161;BME280;19522;45.656;11.302;2023-01-30T08:07:32;98653.84;;;-0.30;81.37
33161;BME280;19522;45.656;11.302;2023-01-30T08:09:58;98641.66;;;-0.10;81.09
33161;BME280;19522;45.656;11.302;2023-01-30T08:12:23;98632.09;;;0.10;80.87
33161;BME280;19522;45.656;11.302;2023-01-30T08:14:52;98602.28;;;0.17;80.60
33161;BME280;19522;45.656;11.302;2023-01-30T08:17:17;98601.34;;;0.63;77.50
33161;BME280;19522;45.656;11.302;2023-01-30T08:19:42;98596.00;;;0.74;76.50
33161;BME280;19522;45.656;11.302;2023-01-30T08:22:08;98613.38;;;0.80;76.81
33161;BME280;19522;45.656;11.302;2023-01-30T08:24:36;98610.72;;;0.80;76.83
33161;BME280;19522;45.656;11.302;2023-01-30T08:27:01;98609.25;;;0.76;76.98
33161;BME280;19522;45.656;11.302;2023-01-30T08:29:27;98590.66;;;0.74;76.88
33161;BME280;19522;45.656;11.302;2023-01-30T08:31:57;98610.56;;;0.93;76.32
33161;BME280;19522;45.656;11.302;2023-01-30T08:34:22;98622.72;;;0.97;76.32
33161;BME280;19522;45.656;11.302;2023-01-30T08:36:48;98599.41;;;0.76;76.68
33161;BME280;19522;45.656;11.302;2023-01-30T08:39:13;98633.03;;;1.02;76.90
33161;BME280;19522;45.656;11.302;2023-01-30T08:41:39;98620.66;;;1.01;77.22
33161;BME280;19522;45.656;11.302;2023-01-30T08:44:08;98600.47;;;0.97;76.57
33161;BME280;19522;45.656;11.302;2023-01-30T08:46:33;98603.00;;;1.09;76.02
33161;BME280;19522;45.656;11.302;2023-01-30T08:48:59;98606.81;;;0.84;76.58
33161;BME280;19522;45.656;11.302;2023-01-30T08:51:24;98617.72;;;1.15;76.42
33161;BME280;19522;45.656;11.302;2023-01-30T08:53:50;98613.34;;;1.14;76.20
33161;BME280;19522;45.656;11.302;2023-01-30T08:56:15;98625.91;;;1.46;75.40
33161;BME280;19522;45.656;11.302;2023-01-30T08:58:41;98618.56;;;1.60;74.18
33161;BME280;19522;45.656;11.302;2023-01-30T09:01:08;98609.91;;;1.67;73.28
33161;BME280;19522;45.656;11.302;2023-01-30T09:03:34;98590.00;;;1.81;72.17
33161;BME280;19522;45.656;11.302;2023-01-30T09:05:59;98599.28;;;1.77;72.47
33161;BME280;19522;45.656;11.302;2023-01-30T09:08:25;98604.69;;;1.87;70.58
33161;BME280;19522;45.656;11.302;2023-01-30T09:10:50;98598.75;;;2.05;69.13
33161;BME280;19522;45.656;11.302;2023-01-30T09:13:16;98602.88;;;2.30;68.39
33161;BME280;19522;45.656;11.302;2023-01-30T09:15:41;98578.69;;;2.41;67.50
33161;BME280;19522;45.656;11.302;2023-01-30T09:18:07;98602.31;;;2.57;67.69
33161;BME280;19522;45.656;11.302;2023-01-30T09:20:33;98587.00;;;2.79;65.34
33161;BME280;19522;45.656;11.302;2023-01-30T09:22:58;98581.09;;;2.44;65.65
33161;BME280;19522;45.656;11.302;2023-01-30T09:25:27;98593.91;;;2.72;66.43
33161;BME280;19522;45.656;11.302;2023-01-30T09:27:53;98581.69;;;2.89;67.03
33161;BME280;19522;45.656;11.302;2023-01-30T09:30:19;98579.06;;;3.18;66.88
33161;BME280;19522;45.656;11.302;2023-01-30T09:32:44;98561.06;;;3.50;63.90
33161;BME280;19522;45.656;11.302;2023-01-30T09:35:10;98561.06;;;3.69;61.82
33161;BME280;19522;45.656;11.302;2023-01-30T09:37:35;98550.13;;;4.00;61.07
33161;BME280;19522;45.656;11.302;2023-01-30T09:40:01;98541.09;;;3.92;60.65
33161;BME280;19522;45.656;11.302;2023-01-30T09:43:28;98539.53;;;3.99;60.98
33161;BME280;19522;45.656;11.302;2023-01-30T09:45:40;98543.50;;;4.52;60.22
33161;BME280;19522;45.656;11.302;2023-01-30T09:48:14;98552.75;;;4.95;56.86
33161;BME280;19522;45.656;11.302;2023-01-30T09:56:17;98543.41;;;5.45;56.83
33161;BME280;19522;45.656;11.302;2023-01-30T09:59:14;98535.97;;;5.11;57.75
33161;BME280;19522;45.656;11.302;2023-01-30T10:04:18;98524.13;;;5.04;59.17
33161;BME280;19522;45.656;11.302;2023-01-30T10:15:20;98501.34;;;3.95;63.11
33161;BME280;19522;45.656;11.302;2023-01-30T10:23:24;98489.66;;;5.62;61.75
33161;BME280;19522;45.656;11.302;2023-01-30T10:25:56;98465.59;;;6.39;60.36
33161;BME280;19522;45.656;11.302;2023-01-30T10:31:00;98441.06;;;7.60;56.53
33161;BME280;19522;45.656;11.302;2023-01-30T10:33:29;98452.38;;;8.45;53.33
33161;BME280;19522;45.656;11.302;2023-01-30T10:36:06;98425.47;;;9.14;50.51
33161;BME280;19522;45.656;11.302;2023-01-30T10:38:45;98441.00;;;10.05;48.98
33161;BME280;19522;45.656;11.302;2023-01-30T10:44:02;98420.28;;;11.59;43.00
33161;BME280;19522;45.656;11.302;2023-01-30T10:49:05;98337.06;;;9.22;44.52
33161;BME280;19522;45.656;11.302;2023-01-30T10:56:54;98425.88;;;7.34;51.57
33161;BME280;19522;45.656;11.302;2023-01-30T11:06:05;98375.84;;;7.71;51.97
33161;BME280;19522;45.656;11.302;2023-01-30T11:08:34;98374.78;;;7.89;49.94
33161;BME280;19522;45.656;11.302;2023-01-30T11:11:00;98366.97;;;7.94;50.95
33161;BME280;19522;45.656;11.302;2023-01-30T11:13:30;98354.97;;;8.05;50.79
33161;BME280;19522;45.656;11.302;2023-01-30T11:16:15;98338.59;;;7.98;51.24
33161;BME280;19522;45.656;11.302;2023-01-30T11:18:48;98342.53;;;8.27;50.92
33161;BME280;19522;45.656;11.302;2023-01-30T11:21:33;98351.88;;;8.56;48.73
33161;BME280;19522;45.656;11.302;2023-01-30T11:24:04;98377.22;;;8.63;49.18
33161;BME280;19522;45.656;11.302;2023-01-30T11:26:35;98380.88;;;7.74;51.78
33161;BME280;19522;45.656;11.302;2023-01-30T11:29:30;98361.97;;;7.66;52.72
33161;BME280;19522;45.656;11.302;2023-01-30T11:32:00;98330.69;;;7.88;52.38
33161;BME280;19522;45.656;11.302;2023-01-30T11:34:26;98333.47;;;8.03;51.00
33161;BME280;19522;45.656;11.302;2023-01-30T11:36:52;98339.41;;;7.34;52.10
33161;BME280;19522;45.656;11.302;2023-01-30T11:39:20;98343.22;;;7.73;52.53
33161;BME280;19522;45.656;11.302;2023-01-30T11:44:25;98340.88;;;8.18;51.23
33161;BME280;19522;45.656;11.302;2023-01-30T11:46:52;98336.47;;;8.17;51.05
33161;BME280;19522;45.656;11.302;2023-01-30T11:49:18;98328.72;;;8.14;51.38
33161;BME280;19522;45.656;11.302;2023-01-30T11:51:50;98338.88;;;7.22;53.62
33161;BME280;19522;45.656;11.302;2023-01-30T11:54:28;98344.44;;;8.10;51.75
33161;BME280;19522;45.656;11.302;2023-01-30T11:56:57;98322.41;;;7.90;51.79
33161;BME280;19522;45.656;11.302;2023-01-30T11:59:57;98313.31;;;7.74;52.81
33161;BME280;19522;45.656;11.302;2023-01-30T12:02:31;98278.47;;;7.15;54.31
33161;BME280;19522;45.656;11.302;2023-01-30T12:05:06;98289.72;;;7.60;53.41
33161;BME280;19522;45.656;11.302;2023-01-30T12:07:35;98270.97;;;7.58;53.31
33161;BME280;19522;45.656;11.302;2023-01-30T12:10:40;98284.88;;;7.87;53.88
33161;BME280;19522;45.656;11.302;2023-01-30T12:13:13;98266.97;;;8.57;50.05
33161;BME280;19522;45.656;11.302;2023-01-30T12:15:42;98256.91;;;8.66;49.78
33161;BME280;19522;45.656;11.302;2023-01-30T12:18:22;98261.47;;;8.65;50.64
33161;BME280;19522;45.656;11.302;2023-01-30T12:23:58;98250.94;;;9.47;48.84
33161;BME280;19522;45.656;11.302;2023-01-30T12:26:25;98207.47;;;8.72;49.17
33161;BME280;19522;45.656;11.302;2023-01-30T12:29:01;98255.66;;;9.15;48.85
33161;BME280;19522;45.656;11.302;2023-01-30T12:31:34;98259.59;;;9.87;48.69
33161;BME280;19522;45.656;11.302;2023-01-30T12:34:02;98235.06;;;9.95;47.29
33161;BME280;19522;45.656;11.302;2023-01-30T12:36:39;98216.13;;;9.06;48.03
33161;BME280;19522;45.656;11.302;2023-01-30T12:48:47;98198.75;;;9.15;47.59
33161;BME280;19522;45.656;11.302;2023-01-30T12:51:45;98177.81;;;9.54;47.21
33161;BME280;19522;45.656;11.302;2023-01-30T12:57:50;98230.84;;;9.56;48.05
33161;BME280;19522;45.656;11.302;2023-01-30T13:00:42;98206.69;;;9.31;47.48
33161;BME280;19522;45.656;11.302;2023-01-30T13:06:23;98155.97;;;9.40;48.75
33161;BME280;19522;45.656;11.302;2023-01-30T13:12:11;98159.97;;;9.29;47.68
33161;BME280;19522;45.656;11.302;2023-01-30T13:17:50;98177.44;;;9.42;47.88
33161;BME280;19522;45.656;11.302;2023-01-30T13:23:16;98184.22;;;8.78;49.86
33161;BME280;19522;45.656;11.302;2023-01-30T13:28:50;98190.22;;;8.50;50.10
33161;BME280;19522;45.656;11.302;2023-01-30T13:31:21;98182.50;;;7.84;51.74
33161;BME280;19522;45.656;11.302;2023-01-30T13:33:50;98170.56;;;8.01;52.31
33161;BME280;19522;45.656;11.302;2023-01-30T13:36:22;98165.13;;;8.56;51.36
33161;BME280;19522;45.656;11.302;2023-01-30T13:41:23;98171.03;;;7.82;53.46
33161;BME280;19522;45.656;11.302;2023-01-30T13:43:53;98157.13;;;8.39;52.79
33161;BME280;19522;45.656;11.302;2023-01-30T13:46:24;98157.81;;;8.80;50.33
33161;BME280;19522;45.656;11.302;2023-01-30T14:02:19;98115.16;;;7.97;52.96
33161;BME280;19522;45.656;11.302;2023-01-30T14:04:48;98140.44;;;8.27;52.27
33161;BME280;19522;45.656;11.302;2023-01-30T14:10:02;98150.56;;;7.87;52.53
33161;BME280;19522;45.656;11.302;2023-01-30T14:12:36;98135.88;;;7.10;54.32
33161;BME280;19522;45.656;11.302;2023-01-30T14:18:01;98145.34;;;6.98;56.00
33161;BME280;19522;45.656;11.302;2023-01-30T14:20:28;98136.91;;;7.41;54.79
33161;BME280;19522;45.656;11.302;2023-01-30T14:22:58;98133.47;;;7.24;54.68
33161;BME280;19522;45.656;11.302;2023-01-30T14:33:01;98110.00;;;6.51;56.52
33161;BME280;19522;45.656;11.302;2023-01-30T14:35:28;98085.56;;;6.61;57.18
33161;BME280;19522;45.656;11.302;2023-01-30T14:40:39;98139.53;;;6.28;58.35
33161;BME280;19522;45.656;11.302;2023-01-30T14:45:59;98125.19;;;6.03;59.40
33161;BME280;19522;45.656;11.302;2023-01-30T14:51:22;98135.56;;;5.73;60.50
33161;BME280;19522;45.656;11.302;2023-01-30T14:53:50;98129.13;;;5.57;61.31
33161;BME280;19522;45.656;11.302;2023-01-30T14:56:17;98147.47;;;5.54;62.08
33161;BME280;19522;45.656;11.302;2023-01-30T14:58:52;98154.75;;;5.19;62.96
33161;BME280;19522;45.656;11.302;2023-01-30T15:01:24;98147.25;;;5.39;63.02
33161;BME280;19522;45.656;11.302;2023-01-30T15:03:50;98159.22;;;5.44;63.52
33161;BME280;19522;45.656;11.302;2023-01-30T15:06:16;98140.91;;;5.56;62.50
33161;BME280;19522;45.656;11.302;2023-01-30T15:08:47;98152.34;;;5.50;62.84
33161;BME280;19522;45.656;11.302;2023-01-30T15:11:23;98161.16;;;5.60;62.82
33161;BME280;19522;45.656;11.302;2023-01-30T15:19:27;98151.72;;;5.22;63.20
33161;BME280;19522;45.656;11.302;2023-01-30T15:30:23;98156.97;;;4.89;64.17
33161;BME280;19522;45.656;11.302;2023-01-30T15:33:12;98143.72;;;4.69;64.88
33161;BME280;19522;45.656;11.302;2023-01-30T15:35:38;98149.44;;;4.48;65.95
33161;BME280;19522;45.656;11.302;2023-01-30T15:38:04;98156.25;;;4.87;65.51
33161;BME280;19522;45.656;11.302;2023-01-30T15:40:30;98120.19;;;4.71;65.51